Time;durP1;ratioP1;P1;durP2;ratioP2;P2;SDS_P1;SDS_P2;PMS_P1;PMS_P2;Temp;Humidity;BMP_temperature;BMP_pressure;BME280_temperature;BME280_humidity;BME280_pressure;Samples;Min_cycle;Max_cycle;Signal;HPM_P1;HPM_P2
2024/01/05 00:00:49;;;;;;;7.60;3.42;;;3.60;99.90;;;;;;5034763;28;20059;-74
2024/01/05 00:03:15;;;;;;;14.07;7.03;;;3.50;99.90;;;;;;5022591;28;20080;-74
2024/01/05 00:05:41;;;;;;;12.98;7.00;;;3.50;99.90;;;;;;5054698;28;20041;-74
2024/01/05 00:08:07;;;;;;;13.30;6.28;;;3.50;99.90;;;;;;5038473;28;20074;-73
2024/01/05 00:10:32;;;;;;;10.23;5.03;;;3.50;99.90;;;;;;5054901;28;20131;-74
2024/01/05 00:12:58;;;;;;;11.50;5.90;;;3.50;99.90;;;;;;5054665;28;20044;-73
2024/01/05 00:15:24;;;;;;;10.38;4.72;;;3.50;99.90;;;;;;5037952;28;20497;-73
2024/01/05 00:17:50;;;;;;;14.75;7.15;;;3.50;99.90;;;;;;5054682;28;20072;-73
2024/01/05 00:20:16;;;;;;;10.65;4.57;;;3.50;99.90;;;;;;5054622;28;20032;-73
2024/01/05 00:22:41;;;;;;;12.88;5.57;;;3.50;99.90;;;;;;5054804;28;20081;-73
2024/01/05 00:25:07;;;;;;;16.65;6.20;;;3.50;99.90;;;;;;5037947;28;20040;-74
2024/01/05 00:27:33;;;;;;;12.60;5.88;;;3.50;99.90;;;;;;5054480;28;20041;-74
2024/01/05 00:29:59;;;;;;;16.40;7.28;;;3.50;99.90;;;;;;5037741;28;20040;-74
2024/01/05 00:32:25;;;;;;;12.82;5.95;;;3.40;99.90;;;;;;5054720;28;20206;-74
2024/01/05 00:34:50;;;;;;;14.40;5.75;;;3.50;99.90;;;;;;5037645;28;20037;-75
2024/01/05 00:37:16;;;;;;;14.70;5.50;;;3.50;99.90;;;;;;5054386;28;20040;-74
2024/01/05 00:39:42;;;;;;;11.63;5.97;;;3.50;99.90;;;;;;5054306;28;20123;-74
2024/01/05 00:42:08;;;;;;;13.85;5.55;;;3.50;99.90;;;;;;5038101;28;20453;-74
2024/01/05 00:44:34;;;;;;;13.50;7.00;;;3.40;99.90;;;;;;5038078;28;20119;-74
2024/01/05 00:47:00;;;;;;;11.02;4.57;;;3.50;99.90;;;;;;5037584;28;20102;-73
2024/01/05 00:49:25;;;;;;;12.32;6.07;;;3.50;99.90;;;;;;5054286;28;20131;-74
2024/01/05 00:51:51;;;;;;;16.58;8.07;;;3.50;99.90;;;;;;5037692;28;20040;-74
2024/01/05 00:54:17;;;;;;;11.07;5.05;;;3.40;99.90;;;;;;5054194;28;20040;-74
2024/01/05 00:56:43;;;;;;;17.73;8.10;;;3.40;99.90;;;;;;5037622;28;20123;-74
2024/01/05 00:59:08;;;;;;;16.77;8.45;;;3.40;99.90;;;;;;5037462;28;20044;-74
2024/01/05 01:01:34;;;;;;;19.13;9.90;;;3.40;99.90;;;;;;5054149;28;20093;-73
2024/01/05 01:04:00;;;;;;;18.65;9.02;;;3.40;99.90;;;;;;5054543;28;20048;-74
2024/01/05 01:06:26;;;;;;;17.23;9.45;;;3.40;99.90;;;;;;5057784;28;20485;-74
2024/01/05 01:08:51;;;;;;;15.95;7.63;;;3.40;99.90;;;;;;5074723;28;20055;-73
2024/01/05 01:11:18;;;;;;;21.05;10.63;;;3.40;99.90;;;;;;5058005;28;20055;-73
2024/01/05 01:13:44;;;;;;;20.95;10.73;;;3.40;99.90;;;;;;5057936;28;20048;-73
2024/01/05 01:16:11;;;;;;;19.88;11.52;;;3.40;99.90;;;;;;5041123;28;20048;-73
2024/01/05 01:18:38;;;;;;;16.35;8.60;;;3.60;99.90;;;;;;5057524;28;20040;-68
2024/01/05 01:21:04;;;;;;;13.30;5.75;;;3.50;99.90;;;;;;5074577;28;20504;-67
2024/01/05 01:23:30;;;;;;;20.65;10.63;;;3.40;99.90;;;;;;5040491;28;20036;-68
2024/01/05 01:25:56;;;;;;;18.83;10.25;;;3.40;99.90;;;;;;5041269;28;20039;-67
2024/01/05 01:28:21;;;;;;;17.33;8.52;;;3.40;99.90;;;;;;5057368;28;20059;-68
2024/01/05 01:30:47;;;;;;;18.15;9.07;;;3.60;99.90;;;;;;5057370;28;20055;-67
2024/01/05 01:33:13;;;;;;;21.60;10.30;;;3.40;99.90;;;;;;5057401;28;20082;-68
2024/01/05 01:35:39;;;;;;;18.73;10.40;;;3.30;99.90;;;;;;5057060;28;20123;-68
2024/01/05 01:38:04;;;;;;;14.57;8.20;;;3.40;99.90;;;;;;5057410;28;20485;-68
2024/01/05 01:40:30;;;;;;;20.98;8.90;;;3.40;99.90;;;;;;5057419;28;20036;-68
2024/01/05 01:42:56;;;;;;;11.48;5.60;;;3.40;99.90;;;;;;5057426;28;20040;-67
2024/01/05 01:45:22;;;;;;;18.55;8.93;;;3.50;99.90;;;;;;5057357;28;20086;-69
2024/01/05 01:47:49;;;;;;;18.02;7.85;;;3.50;99.90;;;;;;5056860;28;20050;-67
2024/01/05 01:50:16;;;;;;;15.90;8.27;;;3.40;99.90;;;;;;5057360;28;20089;-68
2024/01/05 01:52:47;;;;;;;18.05;8.45;;;3.40;99.90;;;;;;5056932;28;20123;-67
2024/01/05 01:55:14;;;;;;;18.75;9.05;;;3.40;99.90;;;;;;5057271;28;20044;-68
2024/01/05 01:57:40;;;;;;;15.25;7.90;;;3.30;99.90;;;;;;5040517;28;20123;-67
2024/01/05 02:00:07;;;;;;;23.13;10.43;;;3.40;99.90;;;;;;5040485;28;20036;-68
2024/01/05 02:02:34;;;;;;;12.93;6.95;;;3.30;99.90;;;;;;5056580;28;20040;-68
2024/01/05 02:05:00;;;;;;;15.90;7.57;;;3.40;99.90;;;;;;5056667;28;20048;-67
2024/01/05 02:07:26;;;;;;;18.58;10.23;;;3.40;99.90;;;;;;5056800;28;20043;-68
2024/01/05 02:09:52;;;;;;;19.05;9.38;;;3.30;99.90;;;;;;5040338;28;20028;-67
2024/01/05 02:12:18;;;;;;;17.30;8.55;;;3.30;99.90;;;;;;5040420;28;20037;-68
2024/01/05 02:14:44;;;;;;;21.35;10.18;;;3.40;99.90;;;;;;5056935;28;20389;-68
2024/01/05 02:17:29;;;;;;;13.82;6.60;;;3.40;99.90;;;;;;5055927;28;20047;-67
2024/01/05 02:19:55;;;;;;;21.27;11.07;;;3.40;99.90;;;;;;5056557;28;20041;-67
2024/01/05 02:22:22;;;;;;;16.55;9.43;;;3.40;99.90;;;;;;5056505;28;20162;-68
2024/01/05 02:24:49;;;;;;;15.60;7.07;;;3.40;99.90;;;;;;5056411;28;20037;-67
2024/01/05 02:27:15;;;;;;;15.15;6.28;;;3.40;99.90;;;;;;5056651;28;20530;-67
2024/01/05 02:29:41;;;;;;;23.77;10.15;;;3.40;99.90;;;;;;5040067;28;20036;-73
2024/01/05 02:32:07;;;;;;;23.60;10.90;;;3.50;99.90;;;;;;5073196;28;20036;-74
2024/01/05 02:34:33;;;;;;;18.75;9.98;;;3.40;99.90;;;;;;5073098;28;20046;-74
2024/01/05 02:36:59;;;;;;;20.10;7.88;;;3.40;99.90;;;;;;5056767;28;20123;-73
2024/01/05 02:39:24;;;;;;;15.57;7.95;;;3.40;99.90;;;;;;5039566;28;20067;-73
2024/01/05 02:41:50;;;;;;;13.43;6.30;;;3.40;99.90;;;;;;5039426;28;20090;-73
2024/01/05 02:44:16;;;;;;;22.83;11.93;;;3.40;99.90;;;;;;5056427;28;20036;-73
2024/01/05 02:46:42;;;;;;;19.80;11.43;;;3.70;99.90;;;;;;5039335;28;20124;-73
2024/01/05 02:49:07;;;;;;;13.60;6.55;;;3.50;99.90;;;;;;5072615;28;20154;-73
2024/01/05 02:51:33;;;;;;;14.48;6.28;;;3.50;99.90;;;;;;5039226;28;20040;-73
2024/01/05 02:53:59;;;;;;;22.48;11.77;;;3.50;99.90;;;;;;5055830;28;20048;-74
2024/01/05 02:56:24;;;;;;;29.42;15.15;;;3.40;99.90;;;;;;5056117;28;20080;-73
2024/01/05 02:58:52;;;;;;;13.02;6.22;;;3.50;99.90;;;;;;5072499;28;20036;-73
2024/01/05 03:01:19;;;;;;;12.90;5.63;;;3.50;99.90;;;;;;5039096;28;20111;-73
2024/01/05 03:03:47;;;;;;;15.07;6.95;;;3.50;99.90;;;;;;5055494;28;20111;-72
2024/01/05 03:06:16;;;;;;;17.63;9.38;;;3.50;99.90;;;;;;5055583;28;20051;-72
2024/01/05 03:08:43;;;;;;;14.18;6.60;;;3.50;99.90;;;;;;5039297;28;20033;-73
2024/01/05 03:11:09;;;;;;;24.80;12.43;;;3.50;99.90;;;;;;5039308;28;20516;-73
2024/01/05 03:13:35;;;;;;;13.30;5.95;;;3.50;99.90;;;;;;5038854;28;20044;-73
2024/01/05 03:16:01;;;;;;;19.88;10.88;;;3.50;99.90;;;;;;5038802;28;20051;-74
2024/01/05 03:18:27;;;;;;;29.13;14.95;;;3.50;99.90;;;;;;5038690;28;20412;-74
2024/01/05 03:20:53;;;;;;;26.95;15.25;;;3.50;99.90;;;;;;5039083;28;20476;-74
2024/01/05 03:23:18;;;;;;;19.33;10.25;;;3.50;99.90;;;;;;5039201;28;20072;-73
2024/01/05 03:25:45;;;;;;;24.92;14.65;;;3.50;99.90;;;;;;5072227;28;20040;-74
2024/01/05 03:28:12;;;;;;;18.77;9.77;;;3.50;99.90;;;;;;5054447;28;20040;-73
2024/01/05 03:30:38;;;;;;;19.27;9.75;;;3.50;99.90;;;;;;5038550;28;20071;-73
2024/01/05 03:33:04;;;;;;;19.15;10.80;;;3.50;99.90;;;;;;5055344;28;20041;-74
2024/01/05 03:35:30;;;;;;;22.02;11.65;;;3.50;99.90;;;;;;5071836;28;20076;-74
2024/01/05 03:37:56;;;;;;;22.52;12.18;;;3.50;99.90;;;;;;5071802;28;20076;-73
2024/01/05 03:40:23;;;;;;;18.27;10.32;;;3.50;99.90;;;;;;5071759;28;20090;-73
2024/01/05 03:42:48;;;;;;;15.68;8.23;;;3.50;99.90;;;;;;5055228;28;20097;-73
2024/01/05 03:45:14;;;;;;;16.58;9.32;;;3.50;99.90;;;;;;5054990;28;20032;-73
2024/01/05 03:47:40;;;;;;;18.95;11.13;;;3.50;99.90;;;;;;5054954;28;20086;-73
2024/01/05 03:50:07;;;;;;;17.30;9.23;;;3.50;99.90;;;;;;5071933;28;20063;-73
2024/01/05 03:52:33;;;;;;;17.88;11.07;;;3.50;99.90;;;;;;5038427;28;20388;-72
2024/01/05 03:54:58;;;;;;;14.02;7.40;;;3.60;99.90;;;;;;5072084;28;20123;-73
2024/01/05 03:57:24;;;;;;;18.10;10.45;;;3.60;99.90;;;;;;5054879;28;20044;-73
2024/01/05 03:59:50;;;;;;;17.17;9.85;;;3.60;99.90;;;;;;5038142;28;20044;-73
2024/01/05 04:02:16;;;;;;;20.15;11.70;;;3.60;99.90;;;;;;5038732;28;20043;-73
2024/01/05 04:04:42;;;;;;;18.73;10.13;;;3.60;99.90;;;;;;5054656;28;20447;-73
2024/01/05 04:07:08;;;;;;;15.18;9.05;;;3.60;99.90;;;;;;5054922;28;20182;-73
2024/01/05 04:09:34;;;;;;;20.80;13.13;;;3.60;99.90;;;;;;5054661;28;20079;-73
2024/01/05 04:12:00;;;;;;;20.40;10.88;;;3.60;99.90;;;;;;5054867;28;20062;-73
2024/01/05 04:14:26;;;;;;;20.35;11.68;;;3.60;99.90;;;;;;5021874;28;20044;-72
2024/01/05 04:16:51;;;;;;;21.88;11.63;;;3.60;99.90;;;;;;5054919;28;20032;-73
2024/01/05 04:19:17;;;;;;;19.77;12.65;;;3.60;99.90;;;;;;5021461;28;20045;-73
2024/01/05 04:21:43;;;;;;;19.00;11.88;;;3.60;99.90;;;;;;5054508;28;20507;-73
2024/01/05 04:24:09;;;;;;;24.52;13.77;;;3.70;99.90;;;;;;5037868;28;20036;-73
2024/01/05 04:26:35;;;;;;;21.33;11.23;;;3.60;99.90;;;;;;5054531;28;20032;-73
2024/01/05 04:29:01;;;;;;;26.23;16.08;;;3.70;99.90;;;;;;5038018;28;20374;-73
2024/01/05 04:31:27;;;;;;;19.92;11.98;;;3.60;99.90;;;;;;5054366;28;20063;-73
2024/01/05 04:33:55;;;;;;;22.10;12.23;;;3.70;99.90;;;;;;5037992;28;20044;-73
2024/01/05 04:36:21;;;;;;;21.05;11.98;;;3.70;99.90;;;;;;5038058;28;20110;-73
2024/01/05 04:38:47;;;;;;;25.20;15.63;;;3.70;99.90;;;;;;5038135;28;20044;-73
2024/01/05 04:41:14;;;;;;;25.60;16.13;;;3.70;99.90;;;;;;5058333;28;20094;-74
2024/01/05 04:43:41;;;;;;;23.02;13.18;;;3.70;99.90;;;;;;5041726;28;20037;-74
2024/01/05 04:46:07;;;;;;;22.42;13.60;;;3.80;99.90;;;;;;5058466;28;20032;-73
2024/01/05 04:48:33;;;;;;;23.95;15.13;;;3.80;99.90;;;;;;5041740;28;20040;-67
2024/01/05 04:51:03;;;;;;;23.23;14.20;;;3.80;99.90;;;;;;5058370;28;20040;-67
2024/01/05 04:53:28;;;;;;;24.73;16.05;;;3.80;99.90;;;;;;5041472;28;20071;-68
2024/01/05 04:55:54;;;;;;;29.52;19.58;;;3.90;99.90;;;;;;5041314;28;20045;-68
2024/01/05 04:58:21;;;;;;;21.77;11.98;;;3.90;99.90;;;;;;5024888;28;20119;-68
2024/01/05 05:00:47;;;;;;;20.33;13.55;;;3.90;99.90;;;;;;5058130;28;20393;-68
2024/01/05 05:03:15;;;;;;;18.42;11.77;;;3.90;99.90;;;;;;5054628;28;20056;-68
2024/01/05 05:05:42;;;;;;;22.23;13.23;;;4.20;99.90;;;;;;5038071;28;20049;-66
2024/01/05 05:08:10;;;;;;;25.52;14.90;;;3.90;99.90;;;;;;5021678;28;20107;-66
2024/01/05 05:10:37;;;;;;;27.70;17.23;;;3.90;99.90;;;;;;5038564;28;20416;-67
2024/01/05 05:13:03;;;;;;;21.13;11.10;;;3.90;99.90;;;;;;5037862;28;20128;-67
2024/01/05 05:15:29;;;;;;;19.42;11.65;;;4.00;99.90;;;;;;5038131;28;20489;-67
2024/01/05 05:17:55;;;;;;;29.95;18.48;;;4.00;99.90;;;;;;5037582;28;20071;-67
2024/01/05 05:20:21;;;;;;;22.45;12.57;;;4.00;99.90;;;;;;5037741;28;20037;-67
2024/01/05 05:22:46;;;;;;;26.90;15.05;;;4.00;99.90;;;;;;5037656;28;20756;-67
2024/01/05 05:25:12;;;;;;;25.60;15.00;;;4.00;99.90;;;;;;5037575;28;20044;-67
2024/01/05 05:27:38;;;;;;;21.27;12.10;;;4.00;99.90;;;;;;5021508;28;20037;-67
2024/01/05 05:30:06;;;;;;;30.15;17.63;;;4.10;99.90;;;;;;5037462;28;20041;-68
2024/01/05 05:32:32;;;;;;;22.25;11.93;;;4.10;99.90;;;;;;5020905;28;20044;-68
2024/01/05 05:34:58;;;;;;;21.25;13.10;;;4.10;99.90;;;;;;5020909;28;20051;-68
2024/01/05 05:37:24;;;;;;;23.13;14.00;;;4.10;99.90;;;;;;5037414;28;20037;-68
2024/01/05 05:39:50;;;;;;;24.83;16.60;;;4.10;99.90;;;;;;5037240;28;20397;-67
2024/01/05 05:42:15;;;;;;;25.65;15.90;;;4.10;99.90;;;;;;5037546;28;20037;-67
2024/01/05 05:44:41;;;;;;;17.27;10.18;;;4.10;99.90;;;;;;5037225;28;20041;-67
2024/01/05 05:47:07;;;;;;;25.77;16.23;;;4.10;99.90;;;;;;5020753;28;20128;-68
2024/01/05 05:49:33;;;;;;;28.50;17.83;;;4.10;99.90;;;;;;5037440;28;20127;-68
2024/01/05 05:51:59;;;;;;;24.88;16.52;;;4.00;99.90;;;;;;5036359;28;20051;-67
2024/01/05 05:54:24;;;;;;;24.13;15.10;;;4.10;99.90;;;;;;5037029;28;20127;-68
2024/01/05 05:56:50;;;;;;;24.48;16.35;;;4.10;99.90;;;;;;5036981;28;20163;-68
2024/01/05 05:59:16;;;;;;;28.13;18.55;;;4.10;99.90;;;;;;5037133;28;20048;-68
2024/01/05 06:01:42;;;;;;;26.65;16.30;;;4.10;99.90;;;;;;5036999;28;20124;-68
2024/01/05 06:04:08;;;;;;;26.52;17.02;;;4.10;99.90;;;;;;5048194;28;20061;-68
2024/01/05 06:06:34;;;;;;;23.70;13.50;;;4.10;99.90;;;;;;5040239;28;20040;-68
2024/01/05 06:09:00;;;;;;;24.83;15.77;;;4.20;99.90;;;;;;5040162;28;20036;-70
2024/01/05 06:11:28;;;;;;;32.38;19.20;;;4.20;99.90;;;;;;5073455;28;20052;-68
2024/01/05 06:13:56;;;;;;;28.23;16.83;;;4.20;99.90;;;;;;5040713;28;20040;-69
2024/01/05 06:16:21;;;;;;;33.05;20.55;;;4.20;99.90;;;;;;5056670;28;20075;-68
2024/01/05 06:18:48;;;;;;;33.22;19.83;;;4.20;99.90;;;;;;5056450;28;20501;-68
2024/01/05 06:21:14;;;;;;;35.50;21.75;;;4.20;99.90;;;;;;5073482;28;20036;-68
2024/01/05 06:23:40;;;;;;;35.85;18.85;;;4.20;99.90;;;;;;5056477;28;20037;-68
2024/01/05 06:26:05;;;;;;;36.22;21.65;;;4.30;99.90;;;;;;5039737;28;20063;-69
2024/01/05 06:28:31;;;;;;;34.28;19.05;;;4.30;99.90;;;;;;5039814;28;20622;-68
2024/01/05 06:30:57;;;;;;;35.08;19.73;;;4.30;99.90;;;;;;5039773;28;20040;-69
2024/01/05 06:33:23;;;;;;;28.20;17.73;;;4.30;99.90;;;;;;5040034;28;20119;-68
2024/01/05 06:35:48;;;;;;;29.73;16.67;;;4.30;99.90;;;;;;5039582;28;20041;-69
2024/01/05 06:38:14;;;;;;;32.83;19.45;;;4.40;99.90;;;;;;5055928;28;20048;-68
2024/01/05 06:40:40;;;;;;;37.42;21.83;;;4.40;99.90;;;;;;5072844;28;20037;-69
2024/01/05 06:43:06;;;;;;;34.97;20.05;;;4.40;99.90;;;;;;5039473;28;20094;-68
2024/01/05 06:45:32;;;;;;;33.35;19.80;;;4.40;99.90;;;;;;5039615;28;20041;-68
2024/01/05 06:47:58;;;;;;;33.15;17.67;;;4.40;99.90;;;;;;5056312;28;20166;-68
2024/01/05 06:50:24;;;;;;;35.67;21.05;;;4.40;99.90;;;;;;5056189;28;20090;-68
2024/01/05 06:52:50;;;;;;;31.90;18.45;;;4.50;99.90;;;;;;5055869;28;20040;-68
2024/01/05 06:55:16;;;;;;;36.22;22.15;;;4.50;99.90;;;;;;5056058;28;20109;-68
2024/01/05 06:57:42;;;;;;;37.05;21.73;;;4.50;99.90;;;;;;5039339;28;20044;-69
2024/01/05 07:00:10;;;;;;;40.97;22.48;;;4.50;99.90;;;;;;5055796;28;20051;-68
2024/01/05 07:02:37;;;;;;;41.17;25.02;;;4.50;99.90;;;;;;5055630;28;20123;-68
2024/01/05 07:05:03;;;;;;;44.72;23.85;;;4.60;99.90;;;;;;5055673;28;20049;-68
2024/01/05 07:07:30;;;;;;;32.85;18.58;;;4.60;99.90;;;;;;5055529;28;20072;-68
2024/01/05 07:09:56;;;;;;;33.17;19.40;;;4.60;99.90;;;;;;5055717;28;20044;-74
2024/01/05 07:12:22;;;;;;;43.67;23.98;;;4.70;99.90;;;;;;5055790;28;20048;-74
2024/01/05 07:14:48;;;;;;;45.92;25.77;;;4.70;99.90;;;;;;5039255;28;20044;-74
2024/01/05 07:17:14;;;;;;;40.47;22.52;;;4.60;99.90;;;;;;5055659;28;20045;-74
2024/01/05 07:19:40;;;;;;;40.97;23.23;;;4.70;99.90;;;;;;5022392;28;20047;-74
2024/01/05 07:22:07;;;;;;;43.60;23.90;;;4.70;99.90;;;;;;5039159;28;20075;-74
2024/01/05 07:24:37;;;;;;;45.97;26.05;;;4.60;99.90;;;;;;5038857;28;20047;-74
2024/01/05 07:27:06;;;;;;;43.08;24.30;;;4.70;99.90;;;;;;5038726;28;20091;-76
2024/01/05 07:29:32;;;;;;;41.53;24.02;;;4.70;99.90;;;;;;5038878;28;20485;-74
2024/01/05 07:31:57;;;;;;;38.17;22.77;;;4.70;99.90;;;;;;5038573;28;20189;-74
2024/01/05 07:34:23;;;;;;;45.03;26.10;;;4.80;99.90;;;;;;5038599;28;20220;-74
2024/01/05 07:36:49;;;;;;;44.72;24.15;;;4.90;99.90;;;;;;5055085;28;20048;-74
2024/01/05 07:39:15;;;;;;;38.63;24.02;;;4.80;99.90;;;;;;5038612;28;20037;-74
2024/01/05 07:41:41;;;;;;;44.80;23.75;;;4.80;99.90;;;;;;5055141;28;20082;-73
2024/01/05 07:44:07;;;;;;;42.03;25.70;;;4.90;99.90;;;;;;5055064;28;20049;-74
2024/01/05 07:46:40;;;;;;;45.63;24.63;;;4.90;99.90;;;;;;5054769;28;20048;-74
2024/01/05 07:49:06;;;;;;;52.60;30.20;;;4.90;99.90;;;;;;5054904;28;20048;-74
2024/01/05 07:51:32;;;;;;;47.28;26.55;;;4.90;99.90;;;;;;5038207;28;20040;-73
2024/01/05 07:53:58;;;;;;;50.50;26.80;;;4.90;99.90;;;;;;5038503;28;20154;-74
2024/01/05 07:56:24;;;;;;;44.70;24.23;;;4.90;99.90;;;;;;5038195;28;20124;-74
2024/01/05 07:58:50;;;;;;;42.72;24.95;;;4.90;99.90;;;;;;5054655;28;20123;-74
2024/01/05 08:01:20;;;;;;;56.88;30.55;;;4.90;99.90;;;;;;5038045;28;20067;-74
2024/01/05 08:03:47;;;;;;;47.03;26.77;;;4.90;99.90;;;;;;5037728;28;20055;-74
2024/01/05 08:06:16;;;;;;;49.95;26.85;;;4.90;99.90;;;;;;5054739;28;20047;-74
2024/01/05 08:08:46;;;;;;;43.40;24.42;;;4.90;99.90;;;;;;5054695;28;20127;-74
2024/01/05 08:11:13;;;;;;;45.13;25.83;;;4.90;99.90;;;;;;5054966;28;20458;-74
2024/01/05 08:13:40;;;;;;;49.22;25.75;;;4.90;99.90;;;;;;5054214;28;20484;-74
2024/01/05 08:16:07;;;;;;;45.28;25.05;;;4.90;99.90;;;;;;5054811;28;20036;-74
2024/01/05 08:18:32;;;;;;;44.55;22.70;;;4.90;99.90;;;;;;5054647;28;20059;-74
2024/01/05 08:20:58;;;;;;;43.63;26.10;;;5.00;99.90;;;;;;5038282;28;20045;-74
2024/01/05 08:23:24;;;;;;;45.45;26.38;;;5.00;99.90;;;;;;5021555;28;20033;-74
2024/01/05 08:25:50;;;;;;;44.45;25.95;;;5.00;99.90;;;;;;5071500;28;20484;-74
2024/01/05 08:28:15;;;;;;;46.72;27.27;;;5.00;99.90;;;;;;5054861;28;20040;-74
2024/01/05 08:30:41;;;;;;;43.03;23.40;;;5.00;99.90;;;;;;5054746;28;20085;-74
2024/01/05 08:33:07;;;;;;;43.58;23.88;;;5.00;99.90;;;;;;5054779;28;20040;-74
2024/01/05 08:35:36;;;;;;;48.92;28.75;;;5.00;99.90;;;;;;5054471;28;20036;-74
2024/01/05 08:38:02;;;;;;;46.17;26.35;;;5.10;99.90;;;;;;5038141;28;20094;-74
2024/01/05 08:40:29;;;;;;;44.50;25.60;;;5.10;99.90;;;;;;5038144;28;20076;-75
2024/01/05 08:42:55;;;;;;;43.17;25.38;;;5.10;99.90;;;;;;5072387;28;20044;-74
2024/01/05 08:45:21;;;;;;;41.30;24.15;;;5.10;99.90;;;;;;5054414;28;20048;-74
2024/01/05 08:47:47;;;;;;;48.22;26.00;;;5.10;99.90;;;;;;5037656;28;20409;-74
2024/01/05 08:50:13;;;;;;;37.78;21.02;;;5.20;99.90;;;;;;5071047;28;20081;-74
2024/01/05 08:52:39;;;;;;;55.05;29.70;;;5.20;99.90;;;;;;5054483;28;20080;-74
2024/01/05 08:55:05;;;;;;;41.53;23.17;;;5.30;99.90;;;;;;5037705;28;20102;-74
2024/01/05 08:57:31;;;;;;;41.75;22.27;;;5.20;99.90;;;;;;5021625;28;20548;-74
2024/01/05 08:59:57;;;;;;;43.10;24.27;;;5.30;99.90;;;;;;5054206;28;20123;-74
2024/01/05 09:02:23;;;;;;;40.53;23.02;;;5.30;99.90;;;;;;5054277;28;20079;-74
2024/01/05 09:04:49;;;;;;;35.88;20.85;;;5.30;99.90;;;;;;5054093;28;20415;-74
2024/01/05 09:07:15;;;;;;;40.90;22.83;;;5.40;99.90;;;;;;5037841;28;20523;-74
2024/01/05 09:09:40;;;;;;;39.60;22.83;;;5.40;99.90;;;;;;5037582;28;20451;-74
2024/01/05 09:12:08;;;;;;;39.28;20.80;;;5.40;99.90;;;;;;5037804;28;20080;-74
2024/01/05 09:14:33;;;;;;;43.05;24.35;;;5.40;99.90;;;;;;5054213;28;20041;-75
2024/01/05 09:16:59;;;;;;;37.50;22.13;;;5.40;99.90;;;;;;5037437;28;20051;-74
2024/01/05 09:19:25;;;;;;;44.47;23.88;;;5.50;99.90;;;;;;5054019;28;20048;-75
2024/01/05 09:21:51;;;;;;;37.47;21.60;;;5.50;99.90;;;;;;5037374;28;20511;-74
2024/01/05 09:24:17;;;;;;;35.05;20.73;;;5.50;99.90;;;;;;5054213;28;20484;-74
2024/01/05 09:26:43;;;;;;;34.00;20.05;;;5.60;99.90;;;;;;5022675;28;20040;-74
2024/01/05 09:29:09;;;;;;;34.80;21.58;;;5.60;99.90;;;;;;5041345;28;20047;-68
2024/01/05 09:31:35;;;;;;;35.47;20.15;;;5.60;99.90;;;;;;5057753;28;20531;-68
2024/01/05 09:34:02;;;;;;;37.70;23.17;;;5.60;99.90;;;;;;5057616;28;20124;-67
2024/01/05 09:36:28;;;;;;;36.72;21.25;;;5.60;99.90;;;;;;5040922;28;20123;-68
2024/01/05 09:38:54;;;;;;;34.63;20.70;;;5.60;99.90;;;;;;5040717;28;20520;-68
2024/01/05 09:41:20;;;;;;;33.35;19.98;;;5.60;99.90;;;;;;5040662;28;20040;-68
2024/01/05 09:43:48;;;;;;;43.97;26.98;;;5.60;99.90;;;;;;5040674;28;20063;-70
2024/01/05 09:46:15;;;;;;;41.42;25.55;;;5.60;99.90;;;;;;5073972;28;20143;-69
2024/01/05 09:48:41;;;;;;;44.08;23.70;;;5.60;99.90;;;;;;5024297;28;20048;-68
2024/01/05 09:51:08;;;;;;;38.35;22.88;;;5.60;99.90;;;;;;5057383;28;20082;-68
2024/01/05 09:53:33;;;;;;;36.75;22.02;;;5.60;99.90;;;;;;5057330;28;20090;-68
2024/01/05 09:56:02;;;;;;;34.85;19.52;;;5.70;99.90;;;;;;5056980;28;20080;-68
2024/01/05 09:58:28;;;;;;;32.47;17.02;;;5.70;99.90;;;;;;5057149;28;20094;-68
2024/01/05 10:00:57;;;;;;;31.13;17.20;;;5.80;99.90;;;;;;5040545;28;20428;-68
2024/01/05 10:03:24;;;;;;;31.48;16.63;;;5.80;99.90;;;;;;5040603;28;20065;-68
2024/01/05 10:05:53;;;;;;;27.58;14.50;;;5.90;99.90;;;;;;5057132;28;20033;-68
2024/01/05 10:08:21;;;;;;;28.80;11.98;;;5.90;99.90;;;;;;5043573;28;20047;-68
2024/01/05 10:11:02;;;;;;;12.68;6.60;;;6.00;99.90;;;;;;5076569;28;20115;-68
2024/01/05 10:13:28;;;;;;;18.27;9.07;;;6.10;99.90;;;;;;5060418;28;20145;-67
2024/01/05 10:16:02;;;;;;;30.45;15.38;;;6.10;99.90;;;;;;5056678;28;20043;-68
2024/01/05 10:18:29;;;;;;;18.50;10.25;;;6.10;99.90;;;;;;5043976;28;20044;-68
2024/01/05 10:20:57;;;;;;;28.17;13.07;;;6.20;99.90;;;;;;5076924;28;20396;-68
2024/01/05 10:23:23;;;;;;;21.75;12.43;;;6.20;99.90;;;;;;5059894;28;20067;-68
2024/01/05 10:25:51;;;;;;;22.88;13.15;;;6.30;99.90;;;;;;5059884;28;20047;-67
2024/01/05 10:28:26;;;;;;;27.80;16.20;;;6.30;99.90;;;;;;5076720;28;20047;-68
2024/01/05 10:30:54;;;;;;;25.30;14.85;;;6.30;99.90;;;;;;5076860;28;20456;-68
2024/01/05 10:33:21;;;;;;;26.65;14.80;;;6.30;99.90;;;;;;5076584;28;20047;-68
2024/01/05 10:35:46;;;;;;;26.23;14.40;;;6.30;99.90;;;;;;5043431;28;20388;-68
2024/01/05 10:38:13;;;;;;;24.27;13.88;;;6.40;99.90;;;;;;5059261;28;20040;-68
2024/01/05 10:40:40;;;;;;;25.35;14.80;;;6.40;99.90;;;;;;5059830;28;20044;-68
2024/01/05 10:43:16;;;;;;;20.42;12.40;;;6.50;99.90;;;;;;5060034;28;20514;-68
2024/01/05 10:45:44;;;;;;;20.88;12.65;;;6.50;99.90;;;;;;5059628;28;20036;-68
2024/01/05 10:48:13;;;;;;;20.65;12.10;;;6.60;99.90;;;;;;5042815;28;20059;-68
2024/01/05 10:50:43;;;;;;;19.10;10.27;;;6.60;99.90;;;;;;5043242;28;20028;-68
2024/01/05 10:53:09;;;;;;;18.42;8.88;;;6.60;99.90;;;;;;5059462;28;20119;-68
2024/01/05 10:55:37;;;;;;;15.45;8.52;;;6.60;99.90;;;;;;5059250;28;20047;-68
2024/01/05 10:58:04;;;;;;;15.10;7.07;;;6.70;99.90;;;;;;5074876;28;20064;-67
2024/01/05 11:00:30;;;;;;;13.23;7.65;;;6.70;99.90;;;;;;5059092;28;20082;-67
2024/01/05 11:03:17;;;;;;;13.38;6.75;;;6.80;99.90;;;;;;5076204;28;20063;-68
2024/01/05 11:05:45;;;;;;;12.05;6.05;;;6.80;99.90;;;;;;5059476;28;20042;-67
2024/01/05 11:08:34;;;;;;;13.27;6.22;;;6.80;99.90;;;;;;5092554;28;20039;-68
2024/01/05 11:11:03;;;;;;;9.20;4.45;;;6.80;99.90;;;;;;5075691;28;20077;-67
2024/01/05 11:13:47;;;;;;;9.82;4.85;;;6.90;99.90;;;;;;5092473;28;20055;-67
2024/01/05 11:16:22;;;;;;;17.67;12.20;;;6.90;99.90;;;;;;5075452;28;20177;-67
2024/01/05 11:19:05;;;;;;;10.90;5.80;;;6.80;99.90;;;;;;5075294;28;20040;-67
2024/01/05 11:21:40;;;;;;;15.10;7.45;;;6.80;99.90;;;;;;5092482;28;20058;-68
2024/01/05 11:24:07;;;;;;;14.00;7.10;;;6.90;99.90;;;;;;5075564;28;20032;-67
2024/01/05 11:26:39;;;;;;;13.63;6.65;;;6.90;99.90;;;;;;5075683;28;20496;-67
2024/01/05 11:29:05;;;;;;;12.90;5.45;;;6.90;99.90;;;;;;5075554;28;20373;-67
2024/01/05 11:32:00;;;;;;;16.02;9.25;;;6.90;99.90;;;;;;5058740;28;20036;-67
2024/01/05 11:34:28;;;;;;;13.55;6.97;;;6.80;99.90;;;;;;5052804;28;20113;-67
2024/01/05 11:36:55;;;;;;;15.85;9.63;;;6.90;99.90;;;;;;5075393;28;20050;-67
2024/01/05 11:39:41;;;;;;;15.50;8.60;;;6.80;99.90;;;;;;5075074;28;20048;-68
2024/01/05 11:42:07;;;;;;;14.75;8.00;;;6.80;99.90;;;;;;5091998;28;20118;-68
2024/01/05 11:44:36;;;;;;;15.55;7.90;;;6.80;99.90;;;;;;5091938;28;20590;-68
2024/01/05 11:47:02;;;;;;;13.13;7.03;;;6.80;99.90;;;;;;5075366;28;20094;-68
2024/01/05 11:49:41;;;;;;;15.95;7.60;;;6.90;99.90;;;;;;5057597;28;20052;-67
2024/01/05 11:52:07;;;;;;;8.70;3.70;;;6.90;99.90;;;;;;5075476;28;20130;-68
2024/01/05 11:54:36;;;;;;;6.10;2.40;;;6.90;99.90;;;;;;5074908;28;20040;-68
2024/01/05 11:57:04;;;;;;;5.88;1.48;;;7.00;99.90;;;;;;5074876;28;20078;-67
2024/01/05 11:59:30;;;;;;;4.10;1.27;;;7.00;99.90;;;;;;5058209;28;20040;-67
2024/01/05 12:01:55;;;;;;;3.28;1.10;;;7.00;99.90;;;;;;5075136;28;20040;-68
2024/01/05 12:04:21;;;;;;;2.97;1.08;;;7.00;99.90;;;;;;5091596;28;20052;-68
2024/01/05 12:06:52;;;;;;;4.13;1.20;;;7.00;99.90;;;;;;5041829;28;20493;-67
2024/01/05 12:09:18;;;;;;;3.28;1.10;;;6.90;99.90;;;;;;5075030;28;20126;-67
2024/01/05 12:11:44;;;;;;;2.65;0.95;;;6.90;99.90;;;;;;5058384;28;20476;-67
2024/01/05 12:14:10;;;;;;;4.45;1.00;;;7.00;99.90;;;;;;5058298;28;20043;-67
2024/01/05 12:16:36;;;;;;;3.03;0.98;;;6.90;99.90;;;;;;5074643;28;20044;-67
2024/01/05 12:19:02;;;;;;;3.92;1.00;;;6.90;99.90;;;;;;5091623;28;20484;-67
2024/01/05 12:21:28;;;;;;;4.00;1.10;;;6.90;99.90;;;;;;5058350;28;20093;-67
2024/01/05 12:23:55;;;;;;;3.90;1.20;;;6.90;99.90;;;;;;5057970;28;20037;-67
2024/01/05 12:26:21;;;;;;;3.13;1.10;;;6.90;99.90;;;;;;5041516;28;20119;-67
2024/01/05 12:28:48;;;;;;;4.88;1.30;;;6.90;99.90;;;;;;5075122;28;20054;-67
2024/01/05 12:31:14;;;;;;;4.45;1.15;;;6.90;99.90;;;;;;5057885;28;20046;-67
2024/01/05 12:33:42;;;;;;;3.65;1.10;;;6.90;99.90;;;;;;5074596;28;20072;-67
2024/01/05 12:36:14;;;;;;;6.35;1.50;;;6.90;99.90;;;;;;5074826;28;20082;-67
2024/01/05 12:38:40;;;;;;;4.20;1.30;;;6.90;99.90;;;;;;5091227;28;20047;-67